Terminal Aerodrome Forecast
Issued by NWS Anchorage, AK

Home | Current Version | Previous Version | Text Only | Print | Product List | Glossary On
Versions: 1 2 3 4 5 6 7 8 9 10 11 12 13 14 15 16 17 18 19 20 21 22 23
000
FTAK31 PANC 301142 AAC
TAFANC
TAF AMD
PANC 301142Z 3012/3118 17012G20KT P6SM -SHRA OVC060
     FM301400 12007KT P6SM VCSH BKN070 BKN100
     FM302000 16014G22KT P6SM SCT080 BKN120
     FM310000 19015G25KT P6SM FEW080 SCT120
     FM310600 16007KT P6SM SCT120=

USA.gov is the U.S. government's official web portal to all federal, state and local government web resources and services.